sensor_id;sensor_type;location;lat;lon;timestamp;pressure;altitude;pressure_sealevel;temperature;humidity
44988;BME280;35735;52.226;21.254;2023-03-11T00:03:27;97553.97;;;7.55;100.00
44988;BME280;35735;52.226;21.254;2023-03-11T00:08:27;97553.75;;;7.61;100.00
44988;BME280;35735;52.226;21.254;2023-03-11T00:13:28;97544.63;;;7.67;100.00
44988;BME280;35735;52.226;21.254;2023-03-11T00:18:29;97536.47;;;7.70;100.00
44988;BME280;35735;52.226;21.254;2023-03-11T00:23:30;97537.34;;;7.71;100.00
44988;BME280;35735;52.226;21.254;2023-03-11T00:28:30;97540.84;;;7.73;100.00
44988;BME280;35735;52.226;21.254;2023-03-11T00:33:31;97536.19;;;7.78;100.00
44988;BME280;35735;52.226;21.254;2023-03-11T00:38:31;97526.16;;;7.83;100.00
44988;BME280;35735;52.226;21.254;2023-03-11T00:43:32;97523.31;;;7.88;100.00
44988;BME280;35735;52.226;21.254;2023-03-11T00:48:32;97520.59;;;7.89;100.00
44988;BME280;35735;52.226;21.254;2023-03-11T00:53:33;97515.22;;;7.89;100.00
44988;BME280;35735;52.226;21.254;2023-03-11T00:58:34;97504.47;;;7.89;100.00
44988;BME280;35735;52.226;21.254;2023-03-11T01:03:34;97500.06;;;7.87;100.00
44988;BME280;35735;52.226;21.254;2023-03-11T01:08:36;97503.59;;;7.89;100.00
44988;BME280;35735;52.226;21.254;2023-03-11T01:13:37;97491.97;;;7.88;100.00
44988;BME280;35735;52.226;21.254;2023-03-11T01:18:38;97483.09;;;7.86;100.00
44988;BME280;35735;52.226;21.254;2023-03-11T01:23:40;97486.78;;;7.84;100.00
44988;BME280;35735;52.226;21.254;2023-03-11T01:28:40;97483.19;;;7.83;100.00
44988;BME280;35735;52.226;21.254;2023-03-11T01:33:41;97486.78;;;7.84;100.00
44988;BME280;35735;52.226;21.254;2023-03-11T01:38:41;97482.34;;;7.83;100.00
44988;BME280;35735;52.226;21.254;2023-03-11T01:48:51;97478.94;;;7.77;100.00
44988;BME280;35735;52.226;21.254;2023-03-11T01:53:54;97473.69;;;7.74;100.00
44988;BME280;35735;52.226;21.254;2023-03-11T01:58:56;97471.16;;;7.70;100.00
44988;BME280;35735;52.226;21.254;2023-03-11T02:03:57;97472.16;;;7.67;100.00
44988;BME280;35735;52.226;21.254;2023-03-11T02:08:59;97471.25;;;7.67;100.00
44988;BME280;35735;52.226;21.254;2023-03-11T02:14:02;97464.34;;;7.59;100.00
44988;BME280;35735;52.226;21.254;2023-03-11T02:25:13;97460.97;;;7.54;100.00
44988;BME280;35735;52.226;21.254;2023-03-11T02:30:22;97460.97;;;7.54;100.00
44988;BME280;35735;52.226;21.254;2023-03-11T02:35:23;97461.16;;;7.48;100.00
44988;BME280;35735;52.226;21.254;2023-03-11T02:45:25;97452.44;;;7.41;100.00
44988;BME280;35735;52.226;21.254;2023-03-11T02:50:28;97449.09;;;7.35;100.00
44988;BME280;35735;52.226;21.254;2023-03-11T02:55:28;97445.59;;;7.33;100.00
44988;BME280;35735;52.226;21.254;2023-03-11T03:00:29;97445.59;;;7.33;100.00
44988;BME280;35735;52.226;21.254;2023-03-11T03:05:29;97442.09;;;7.31;100.00
44988;BME280;35735;52.226;21.254;2023-03-11T03:10:30;97439.69;;;7.23;100.00
44988;BME280;35735;52.226;21.254;2023-03-11T03:15:31;97441.41;;;7.26;100.00
44988;BME280;35735;52.226;21.254;2023-03-11T03:20:31;97441.59;;;7.19;100.00
44988;BME280;35735;52.226;21.254;2023-03-11T03:25:32;97432.25;;;7.04;100.00
44988;BME280;35735;52.226;21.254;2023-03-11T03:30:33;97436.72;;;7.05;100.00
44988;BME280;35735;52.226;21.254;2023-03-11T03:35:33;97439.44;;;7.04;100.00
44988;BME280;35735;52.226;21.254;2023-03-11T03:40:34;97435.03;;;7.01;100.00
44988;BME280;35735;52.226;21.254;2023-03-11T03:45:35;97435.03;;;7.01;100.00
44988;BME280;35735;52.226;21.254;2023-03-11T03:50:35;97439.72;;;6.95;100.00
44988;BME280;35735;52.226;21.254;2023-03-11T03:55:36;97450.44;;;6.95;100.00
44988;BME280;35735;52.226;21.254;2023-03-11T04:00:36;97447.28;;;6.83;100.00
44988;BME280;35735;52.226;21.254;2023-03-11T04:05:37;97436.84;;;6.74;100.00
44988;BME280;35735;52.226;21.254;2023-03-11T04:10:38;97426.25;;;6.70;100.00
44988;BME280;35735;52.226;21.254;2023-03-11T04:15:38;97409.66;;;6.58;100.00
44988;BME280;35735;52.226;21.254;2023-03-11T04:20:39;97409.06;;;6.48;100.00
44988;BME280;35735;52.226;21.254;2023-03-11T04:25:39;97402.63;;;6.54;100.00
44988;BME280;35735;52.226;21.254;2023-03-11T04:30:40;97413.06;;;6.63;100.00
44988;BME280;35735;52.226;21.254;2023-03-11T04:35:41;97414.84;;;6.63;100.00
44988;BME280;35735;52.226;21.254;2023-03-11T04:40:41;97413.84;;;6.67;100.00
44988;BME280;35735;52.226;21.254;2023-03-11T04:45:42;97408.44;;;6.68;100.00
44988;BME280;35735;52.226;21.254;2023-03-11T04:50:42;97413.75;;;6.70;100.00
44988;BME280;35735;52.226;21.254;2023-03-11T04:55:43;97405.75;;;6.68;100.00
44988;BME280;35735;52.226;21.254;2023-03-11T05:00:44;97414.56;;;6.72;100.00
44988;BME280;35735;52.226;21.254;2023-03-11T05:05:44;97423.56;;;6.70;100.00
44988;BME280;35735;52.226;21.254;2023-03-11T05:10:45;97430.97;;;6.61;100.00
44988;BME280;35735;52.226;21.254;2023-03-11T05:15:46;97434.06;;;6.49;100.00
44988;BME280;35735;52.226;21.254;2023-03-11T05:20:47;97424.44;;;6.43;100.00
44988;BME280;35735;52.226;21.254;2023-03-11T05:25:47;97417.34;;;6.41;100.00
44988;BME280;35735;52.226;21.254;2023-03-11T05:30:48;97412.75;;;6.44;100.00
44988;BME280;35735;52.226;21.254;2023-03-11T05:35:48;97414.34;;;6.52;100.00
44988;BME280;35735;52.226;21.254;2023-03-11T05:40:49;97406.12;;;6.56;100.00
44988;BME280;35735;52.226;21.254;2023-03-11T05:45:50;97408.75;;;6.58;100.00
44988;BME280;35735;52.226;21.254;2023-03-11T05:50:50;97403.44;;;6.56;100.00
44988;BME280;35735;52.226;21.254;2023-03-11T05:55:57;97397.94;;;6.61;100.00
44988;BME280;35735;52.226;21.254;2023-03-11T06:00:58;97402.81;;;6.76;100.00
44988;BME280;35735;52.226;21.254;2023-03-11T06:05:59;97395.50;;;6.81;100.00
44988;BME280;35735;52.226;21.254;2023-03-11T06:11:07;97398.88;;;6.86;100.00
44988;BME280;35735;52.226;21.254;2023-03-11T06:16:09;97409.22;;;6.99;100.00
44988;BME280;35735;52.226;21.254;2023-03-11T06:21:14;97411.75;;;7.03;100.00
44988;BME280;35735;52.226;21.254;2023-03-11T06:26:18;97413.19;;;7.14;100.00
44988;BME280;35735;52.226;21.254;2023-03-11T06:31:23;97419.53;;;7.11;100.00
44988;BME280;35735;52.226;21.254;2023-03-11T06:36:25;97427.38;;;7.17;100.00
44988;BME280;35735;52.226;21.254;2023-03-11T06:41:26;97429.19;;;7.17;100.00
44988;BME280;35735;52.226;21.254;2023-03-11T06:46:26;97434.41;;;7.20;100.00
44988;BME280;35735;52.226;21.254;2023-03-11T06:51:27;97430.75;;;7.22;100.00
44988;BME280;35735;52.226;21.254;2023-03-11T06:56:27;97427.97;;;7.26;100.00
44988;BME280;35735;52.226;21.254;2023-03-11T07:01:28;97429.47;;;7.34;100.00
44988;BME280;35735;52.226;21.254;2023-03-11T07:06:28;97439.84;;;7.45;100.00
44988;BME280;35735;52.226;21.254;2023-03-11T07:11:29;97435.22;;;7.49;100.00
44988;BME280;35735;52.226;21.254;2023-03-11T07:16:30;97441.31;;;7.54;100.00
44988;BME280;35735;52.226;21.254;2023-03-11T07:21:31;97446.38;;;7.61;100.00
44988;BME280;35735;52.226;21.254;2023-03-11T07:26:34;97451.34;;;7.74;100.00
44988;BME280;35735;52.226;21.254;2023-03-11T07:31:35;97452.97;;;7.78;100.00
44988;BME280;35735;52.226;21.254;2023-03-11T07:36:39;97462.25;;;7.93;100.00
44988;BME280;35735;52.226;21.254;2023-03-11T07:41:40;97460.59;;;7.90;100.00
44988;BME280;35735;52.226;21.254;2023-03-11T07:46:41;97473.97;;;7.92;100.00
44988;BME280;35735;52.226;21.254;2023-03-11T07:51:42;97466.66;;;7.95;100.00
44988;BME280;35735;52.226;21.254;2023-03-11T07:56:43;97467.47;;;7.97;100.00
44988;BME280;35735;52.226;21.254;2023-03-11T08:01:45;97467.38;;;8.01;100.00
44988;BME280;35735;52.226;21.254;2023-03-11T08:06:46;97470.75;;;8.06;100.00
44988;BME280;35735;52.226;21.254;2023-03-11T08:11:47;97483.97;;;8.12;100.00
44988;BME280;35735;52.226;21.254;2023-03-11T08:16:48;97481.84;;;8.20;100.00
44988;BME280;35735;52.226;21.254;2023-03-11T08:21:48;97488.13;;;8.21;100.00
44988;BME280;35735;52.226;21.254;2023-03-11T08:26:49;97488.94;;;8.23;100.00
44988;BME280;35735;52.226;21.254;2023-03-11T08:31:49;97490.03;;;8.17;100.00
44988;BME280;35735;52.226;21.254;2023-03-11T08:36:50;97502.59;;;8.16;100.00
44988;BME280;35735;52.226;21.254;2023-03-11T08:41:50;97498.44;;;8.08;100.00
44988;BME280;35735;52.226;21.254;2023-03-11T08:46:51;97503.91;;;8.05;100.00
44988;BME280;35735;52.226;21.254;2023-03-11T08:51:51;97505.88;;;8.00;100.00
44988;BME280;35735;52.226;21.254;2023-03-11T08:56:52;97515.09;;;7.92;100.00
44988;BME280;35735;52.226;21.254;2023-03-11T09:01:53;97519.72;;;7.89;100.00
44988;BME280;35735;52.226;21.254;2023-03-11T09:06:54;97527.94;;;7.84;100.00
44988;BME280;35735;52.226;21.254;2023-03-11T09:11:54;97533.41;;;7.81;100.00
44988;BME280;35735;52.226;21.254;2023-03-11T09:16:55;97534.31;;;7.80;100.00
44988;BME280;35735;52.226;21.254;2023-03-11T09:21:58;97545.28;;;7.74;100.00
44988;BME280;35735;52.226;21.254;2023-03-11T09:27:01;97548.91;;;7.73;100.00
44988;BME280;35735;52.226;21.254;2023-03-11T09:32:01;97561.50;;;7.71;100.00
44988;BME280;35735;52.226;21.254;2023-03-11T09:37:02;97569.56;;;7.71;100.00
44988;BME280;35735;52.226;21.254;2023-03-11T09:42:18;97567.88;;;7.67;100.00
44988;BME280;35735;52.226;21.254;2023-03-11T09:58:39;97584.41;;;7.54;100.00
44988;BME280;35735;52.226;21.254;2023-03-11T10:03:46;97591.66;;;7.52;100.00
44988;BME280;35735;52.226;21.254;2023-03-11T10:09:05;97605.94;;;7.24;100.00
44988;BME280;35735;52.226;21.254;2023-03-11T10:19:20;97634.62;;;6.93;100.00
44988;BME280;35735;52.226;21.254;2023-03-11T10:29:56;97650.88;;;6.24;100.00
44988;BME280;35735;52.226;21.254;2023-03-11T10:35:14;97667.66;;;5.94;100.00
44988;BME280;35735;52.226;21.254;2023-03-11T10:40:22;97688.84;;;5.68;100.00
44988;BME280;35735;52.226;21.254;2023-03-11T10:45:24;97704.88;;;5.30;100.00
44988;BME280;35735;52.226;21.254;2023-03-11T10:50:26;97736.66;;;5.02;100.00
44988;BME280;35735;52.226;21.254;2023-03-11T10:55:27;97751.41;;;4.78;100.00
44988;BME280;35735;52.226;21.254;2023-03-11T11:00:28;97769.59;;;4.57;100.00
44988;BME280;35735;52.226;21.254;2023-03-11T11:05:33;97783.22;;;4.42;100.00
44988;BME280;35735;52.226;21.254;2023-03-11T11:10:35;97795.03;;;4.29;100.00
44988;BME280;35735;52.226;21.254;2023-03-11T11:15:39;97803.34;;;4.10;100.00
44988;BME280;35735;52.226;21.254;2023-03-11T11:21:03;97814.06;;;4.07;100.00
44988;BME280;35735;52.226;21.254;2023-03-11T11:26:13;97822.28;;;3.93;100.00
44988;BME280;35735;52.226;21.254;2023-03-11T11:31:24;97839.53;;;3.69;100.00
44988;BME280;35735;52.226;21.254;2023-03-11T11:36:30;97854.06;;;3.46;100.00
44988;BME280;35735;52.226;21.254;2023-03-11T11:41:35;97858.84;;;3.18;100.00
44988;BME280;35735;52.226;21.254;2023-03-11T11:47:24;97883.00;;;3.01;100.00
44988;BME280;35735;52.226;21.254;2023-03-11T11:52:34;97899.19;;;2.83;100.00
44988;BME280;35735;52.226;21.254;2023-03-11T11:57:36;97918.00;;;2.64;100.00
44988;BME280;35735;52.226;21.254;2023-03-11T12:08:31;97945.63;;;2.48;100.00
44988;BME280;35735;52.226;21.254;2023-03-11T12:13:56;97967.84;;;2.44;100.00
44988;BME280;35735;52.226;21.254;2023-03-11T12:24:29;98000.81;;;2.21;100.00
44988;BME280;35735;52.226;21.254;2023-03-11T12:29:41;98011.47;;;2.13;100.00
44988;BME280;35735;52.226;21.254;2023-03-11T12:34:43;98022.13;;;2.10;100.00
44988;BME280;35735;52.226;21.254;2023-03-11T12:39:44;98044.34;;;2.01;100.00
44988;BME280;35735;52.226;21.254;2023-03-11T12:44:46;98066.50;;;2.00;100.00
44988;BME280;35735;52.226;21.254;2023-03-11T12:49:53;98069.22;;;1.93;100.00
44988;BME280;35735;52.226;21.254;2023-03-11T13:06:28;98109.16;;;1.60;100.00
44988;BME280;35735;52.226;21.254;2023-03-11T13:11:41;98124.25;;;1.46;100.00
44988;BME280;35735;52.226;21.254;2023-03-11T13:16:44;98145.53;;;1.40;100.00
44988;BME280;35735;52.226;21.254;2023-03-11T13:21:45;98148.19;;;1.26;100.00
44988;BME280;35735;52.226;21.254;2023-03-11T13:27:12;98165.00;;;1.13;100.00
44988;BME280;35735;52.226;21.254;2023-03-11T13:38:41;98189.78;;;1.02;100.00
44988;BME280;35735;52.226;21.254;2023-03-11T13:43:49;98215.44;;;1.02;100.00
44988;BME280;35735;52.226;21.254;2023-03-11T13:48:53;98234.94;;;1.01;100.00
44988;BME280;35735;52.226;21.254;2023-03-11T13:54:06;98242.00;;;0.99;100.00
44988;BME280;35735;52.226;21.254;2023-03-11T13:59:25;98268.53;;;0.94;100.00
44988;BME280;35735;52.226;21.254;2023-03-11T14:04:35;98283.56;;;0.86;100.00
44988;BME280;35735;52.226;21.254;2023-03-11T14:09:36;98290.59;;;0.78;100.00
44988;BME280;35735;52.226;21.254;2023-03-11T14:14:55;98303.91;;;0.81;100.00
44988;BME280;35735;52.226;21.254;2023-03-11T14:25:25;98330.47;;;0.82;100.00
44988;BME280;35735;52.226;21.254;2023-03-11T14:30:32;98348.13;;;0.80;100.00
44988;BME280;35735;52.226;21.254;2023-03-11T14:35:33;98358.75;;;0.76;100.00
44988;BME280;35735;52.226;21.254;2023-03-11T14:40:35;98378.16;;;0.70;100.00
44988;BME280;35735;52.226;21.254;2023-03-11T14:45:38;98380.81;;;0.68;100.00
44988;BME280;35735;52.226;21.254;2023-03-11T14:50:42;98401.19;;;0.68;100.00
44988;BME280;35735;52.226;21.254;2023-03-11T14:55:59;98418.00;;;0.71;100.00
44988;BME280;35735;52.226;21.254;2023-03-11T15:06:34;98432.97;;;0.62;100.00
44988;BME280;35735;52.226;21.254;2023-03-11T15:11:50;98454.22;;;0.59;100.00
44988;BME280;35735;52.226;21.254;2023-03-11T15:16:52;98466.56;;;0.57;100.00
44988;BME280;35735;52.226;21.254;2023-03-11T15:21:57;98488.69;;;0.54;100.00
44988;BME280;35735;52.226;21.254;2023-03-11T15:27:15;98497.53;;;0.54;100.00
44988;BME280;35735;52.226;21.254;2023-03-11T15:37:29;98512.59;;;0.55;100.00
44988;BME280;35735;52.226;21.254;2023-03-11T15:42:29;98522.31;;;0.55;100.00
44988;BME280;35735;52.226;21.254;2023-03-11T15:47:30;98537.34;;;0.54;100.00
44988;BME280;35735;52.226;21.254;2023-03-11T15:52:31;98546.22;;;0.57;100.00
44988;BME280;35735;52.226;21.254;2023-03-11T15:57:31;98563.06;;;0.57;100.00
44988;BME280;35735;52.226;21.254;2023-03-11T16:02:32;98574.56;;;0.59;100.00
44988;BME280;35735;52.226;21.254;2023-03-11T16:07:32;98572.75;;;0.57;100.00
44988;BME280;35735;52.226;21.254;2023-03-11T16:12:33;98591.34;;;0.57;100.00
44988;BME280;35735;52.226;21.254;2023-03-11T16:17:33;98606.41;;;0.58;100.00
44988;BME280;35735;52.226;21.254;2023-03-11T16:22:35;98615.28;;;0.60;100.00
44988;BME280;35735;52.226;21.254;2023-03-11T16:27:36;98638.25;;;0.58;100.00
44988;BME280;35735;52.226;21.254;2023-03-11T16:32:37;98640.06;;;0.59;100.00
44988;BME280;35735;52.226;21.254;2023-03-11T16:37:38;98659.59;;;0.64;100.00
44988;BME280;35735;52.226;21.254;2023-03-11T16:42:38;98674.66;;;0.66;100.00
44988;BME280;35735;52.226;21.254;2023-03-11T16:47:39;98681.78;;;0.69;100.00
44988;BME280;35735;52.226;21.254;2023-03-11T16:52:40;98691.44;;;0.64;100.00
44988;BME280;35735;52.226;21.254;2023-03-11T16:57:41;98705.63;;;0.66;100.00
44988;BME280;35735;52.226;21.254;2023-03-11T17:02:41;98723.31;;;0.64;100.00
44988;BME280;35735;52.226;21.254;2023-03-11T17:07:42;98733.00;;;0.62;100.00
44988;BME280;35735;52.226;21.254;2023-03-11T17:12:42;98747.19;;;0.62;100.00
44988;BME280;35735;52.226;21.254;2023-03-11T17:17:43;98755.12;;;0.61;100.00
44988;BME280;35735;52.226;21.254;2023-03-11T17:22:43;98771.91;;;0.58;100.00
44988;BME280;35735;52.226;21.254;2023-03-11T17:27:44;98778.19;;;0.66;100.00
44988;BME280;35735;52.226;21.254;2023-03-11T17:32:45;98786.12;;;0.63;100.00
44988;BME280;35735;52.226;21.254;2023-03-11T17:37:45;98810.84;;;0.58;100.00
44988;BME280;35735;52.226;21.254;2023-03-11T17:42:46;98815.19;;;0.52;100.00
44988;BME280;35735;52.226;21.254;2023-03-11T17:47:46;98816.06;;;0.51;100.00
44988;BME280;35735;52.226;21.254;2023-03-11T17:52:47;98829.28;;;0.48;100.00
44988;BME280;35735;52.226;21.254;2023-03-11T17:57:47;98823.97;;;0.48;100.00
44988;BME280;35735;52.226;21.254;2023-03-11T18:02:48;98849.69;;;0.51;100.00
44988;BME280;35735;52.226;21.254;2023-03-11T18:07:49;98857.69;;;0.54;100.00
44988;BME280;35735;52.226;21.254;2023-03-11T18:12:49;98861.22;;;0.53;100.00
44988;BME280;35735;52.226;21.254;2023-03-11T18:17:50;98855.81;;;0.48;100.00
44988;BME280;35735;52.226;21.254;2023-03-11T18:22:50;98878.81;;;0.46;100.00
44988;BME280;35735;52.226;21.254;2023-03-11T18:27:51;98892.91;;;0.42;100.00
44988;BME280;35735;52.226;21.254;2023-03-11T18:32:51;98892.91;;;0.42;100.00
44988;BME280;35735;52.226;21.254;2023-03-11T18:37:52;98910.53;;;0.40;100.00
44988;BME280;35735;52.226;21.254;2023-03-11T18:42:53;98920.34;;;0.43;100.00
44988;BME280;35735;52.226;21.254;2023-03-11T18:47:53;98937.16;;;0.43;100.00
44988;BME280;35735;52.226;21.254;2023-03-11T18:52:54;98935.31;;;0.39;100.00
44988;BME280;35735;52.226;21.254;2023-03-11T18:57:56;98937.91;;;0.36;100.00
44988;BME280;35735;52.226;21.254;2023-03-11T19:02:57;98953.66;;;0.27;100.00
44988;BME280;35735;52.226;21.254;2023-03-11T19:07:59;98963.31;;;0.22;100.00
44988;BME280;35735;52.226;21.254;2023-03-11T19:13:00;98976.44;;;0.12;100.00
44988;BME280;35735;52.226;21.254;2023-03-11T19:18:00;98992.28;;;0.09;100.00
44988;BME280;35735;52.226;21.254;2023-03-11T19:23:01;98998.41;;;0.05;100.00
44988;BME280;35735;52.226;21.254;2023-03-11T19:28:02;99008.91;;;-0.01;100.00
44988;BME280;35735;52.226;21.254;2023-03-11T19:33:04;99014.12;;;-0.04;100.00
44988;BME280;35735;52.226;21.254;2023-03-11T19:38:05;99022.03;;;-0.07;100.00
44988;BME280;35735;52.226;21.254;2023-03-11T19:43:06;99035.28;;;-0.07;100.00
44988;BME280;35735;52.226;21.254;2023-03-11T19:48:07;99053.75;;;-0.13;100.00
44988;BME280;35735;52.226;21.254;2023-03-11T19:53:07;99058.97;;;-0.16;100.00
44988;BME280;35735;52.226;21.254;2023-03-11T19:58:08;99063.41;;;-0.15;100.00
44988;BME280;35735;52.226;21.254;2023-03-11T20:03:11;99069.47;;;-0.21;100.00
44988;BME280;35735;52.226;21.254;2023-03-11T20:08:16;99074.81;;;-0.20;100.00
44988;BME280;35735;52.226;21.254;2023-03-11T20:13:19;99084.44;;;-0.25;100.00
44988;BME280;35735;52.226;21.254;2023-03-11T20:18:20;99083.53;;;-0.25;100.00
44988;BME280;35735;52.226;21.254;2023-03-11T20:23:20;99098.56;;;-0.26;100.00
44988;BME280;35735;52.226;21.254;2023-03-11T20:28:21;99108.28;;;-0.26;100.00
44988;BME280;35735;52.226;21.254;2023-03-11T20:33:21;99110.03;;;-0.27;100.00
44988;BME280;35735;52.226;21.254;2023-03-11T20:38:22;99116.25;;;-0.25;100.00
44988;BME280;35735;52.226;21.254;2023-03-11T20:43:23;99125.00;;;-0.29;100.00
44988;BME280;35735;52.226;21.254;2023-03-11T20:48:23;99125.00;;;-0.29;100.00
44988;BME280;35735;52.226;21.254;2023-03-11T20:53:24;99129.41;;;-0.29;100.00
44988;BME280;35735;52.226;21.254;2023-03-11T20:58:24;99131.94;;;-0.34;100.00
44988;BME280;35735;52.226;21.254;2023-03-11T21:03:25;99142.44;;;-0.40;100.00
44988;BME280;35735;52.226;21.254;2023-03-11T21:08:26;99149.50;;;-0.39;100.00
44988;BME280;35735;52.226;21.254;2023-03-11T21:13:26;99145.94;;;-0.41;100.00
44988;BME280;35735;52.226;21.254;2023-03-11T21:18:27;99160.91;;;-0.43;100.00
44988;BME280;35735;52.226;21.254;2023-03-11T21:23:28;99160.84;;;-0.46;100.00
44988;BME280;35735;52.226;21.254;2023-03-11T21:28:29;99163.41;;;-0.49;100.00
44988;BME280;35735;52.226;21.254;2023-03-11T21:33:31;99167.03;;;-0.46;100.00
44988;BME280;35735;52.226;21.254;2023-03-11T21:38:32;99159.97;;;-0.45;100.00
44988;BME280;35735;52.226;21.254;2023-03-11T21:43:32;99169.72;;;-0.44;100.00
44988;BME280;35735;52.226;21.254;2023-03-11T21:48:34;99174.16;;;-0.43;100.00
44988;BME280;35735;52.226;21.254;2023-03-11T21:53:35;99177.78;;;-0.40;100.00
44988;BME280;35735;52.226;21.254;2023-03-11T21:58:36;99191.03;;;-0.40;100.00
44988;BME280;35735;52.226;21.254;2023-03-11T22:03:36;99190.06;;;-0.43;100.00
44988;BME280;35735;52.226;21.254;2023-03-11T22:08:37;99197.16;;;-0.42;100.00
44988;BME280;35735;52.226;21.254;2023-03-11T22:13:38;99195.38;;;-0.43;100.00
44988;BME280;35735;52.226;21.254;2023-03-11T22:18:38;99190.84;;;-0.47;100.00
44988;BME280;35735;52.226;21.254;2023-03-11T22:23:40;99196.94;;;-0.51;100.00
44988;BME280;35735;52.226;21.254;2023-03-11T22:28:41;99200.31;;;-0.57;100.00
44988;BME280;35735;52.226;21.254;2023-03-11T22:33:42;99214.41;;;-0.60;100.00
44988;BME280;35735;52.226;21.254;2023-03-11T22:38:43;99210.81;;;-0.62;100.00
44988;BME280;35735;52.226;21.254;2023-03-11T22:43:44;99224.06;;;-0.62;100.00
44988;BME280;35735;52.226;21.254;2023-03-11T22:48:45;99222.34;;;-0.60;100.00
44988;BME280;35735;52.226;21.254;2023-03-11T22:53:46;99224.25;;;-0.54;100.00
44988;BME280;35735;52.226;21.254;2023-03-11T22:58:46;99222.44;;;-0.57;100.00
44988;BME280;35735;52.226;21.254;2023-03-11T23:03:47;99228.75;;;-0.51;100.00
44988;BME280;35735;52.226;21.254;2023-03-11T23:08:48;99242.94;;;-0.49;100.00
44988;BME280;35735;52.226;21.254;2023-03-11T23:13:49;99239.28;;;-0.54;100.00
44988;BME280;35735;52.226;21.254;2023-03-11T23:18:52;99248.97;;;-0.55;100.00
44988;BME280;35735;52.226;21.254;2023-03-11T23:23:54;99247.19;;;-0.56;100.00
44988;BME280;35735;52.226;21.254;2023-03-11T23:28:55;99244.56;;;-0.54;100.00
44988;BME280;35735;52.226;21.254;2023-03-11T23:33:56;99244.31;;;-0.64;100.00
44988;BME280;35735;52.226;21.254;2023-03-11T23:38:57;99254.87;;;-0.67;100.00
44988;BME280;35735;52.226;21.254;2023-03-11T23:43:57;99255.66;;;-0.69;100.00
44988;BME280;35735;52.226;21.254;2023-03-11T23:48:58;99261.94;;;-0.66;100.00
44988;BME280;35735;52.226;21.254;2023-03-11T23:53:59;99253.87;;;-0.70;100.00
44988;BME280;35735;52.226;21.254;2023-03-11T23:58:59;99255.66;;;-0.69;100.00
